Time;durP1;ratioP1;P1;durP2;ratioP2;P2;SDS_P1;SDS_P2;PMS_P1;PMS_P2;Temp;Humidity;BMP_temperature;BMP_pressure;BME280_temperature;BME280_humidity;BME280_pressure;Samples;Min_cycle;Max_cycle;Signal;HPM_P1;HPM_P2
2022/11/02 00:01:30;;;;;;;0.80;0.50;;;;;;;7.57;100.00;100722.00;5036893;28;20497;-52
2022/11/02 00:03:56;;;;;;;0.83;0.50;;;;;;;7.53;100.00;100710.56;5019461;28;20502;-50
2022/11/02 00:06:23;;;;;;;0.40;0.40;;;;;;;7.49;100.00;100715.91;5046609;28;20512;-50
2022/11/02 00:08:49;;;;;;;3.57;1.40;;;;;;;7.47;100.00;100712.41;5036862;28;20513;-49
2022/11/02 00:11:15;;;;;;;0.40;0.40;;;;;;;7.76;100.00;100720.06;5042961;28;20872;-50
2022/11/02 00:13:42;;;;;;;0.57;0.50;;;;;;;7.82;100.00;100717.38;5043167;28;20504;-53
2022/11/02 00:16:13;;;;;;;1.13;0.70;;;;;;;7.90;100.00;100716.38;5033076;28;20564;-50
2022/11/02 00:18:41;;;;;;;3.73;1.33;;;;;;;7.78;100.00;100715.63;5043747;28;20497;-50
2022/11/02 00:21:07;;;;;;;0.50;0.40;;;;;;;7.70;100.00;100708.66;5039130;28;20496;-50
2022/11/02 00:23:34;;;;;;;17.97;1.77;;;;;;;7.80;100.00;100709.41;5036703;28;20545;-51
2022/11/02 00:26:01;;;;;;;0.57;0.50;;;;;;;7.55;100.00;100707.94;5050471;28;20498;-50
2022/11/02 00:28:29;;;;;;;6.27;1.17;;;;;;;7.45;100.00;100707.13;5038604;28;20462;-52
2022/11/02 00:30:55;;;;;;;0.60;0.40;;;;;;;7.47;100.00;100708.00;5040017;28;21070;-50
2022/11/02 00:33:22;;;;;;;1.60;1.30;;;;;;;7.50;100.00;100709.72;5045391;28;20458;-50
2022/11/02 00:35:48;;;;;;;0.40;0.30;;;;;;;7.53;100.00;100714.97;5039309;28;20478;-50
2022/11/02 00:38:15;;;;;;;0.80;0.60;;;;;;;7.46;100.00;100706.25;5036412;28;20450;-51
2022/11/02 00:40:41;;;;;;;25.73;1.53;;;;;;;7.39;100.00;100699.22;5040244;28;20452;-50
2022/11/02 00:43:08;;;;;;;0.40;0.40;;;;;;;7.27;100.00;100707.31;5043160;28;20505;-52
2022/11/02 00:45:34;;;;;;;0.40;0.30;;;;;;;7.41;100.00;100708.06;5039354;28;20541;-51
2022/11/02 00:48:00;;;;;;;0.60;0.60;;;;;;;7.35;100.00;100705.44;5036336;28;20890;-52
2022/11/02 00:50:27;;;;;;;1.40;1.10;;;;;;;7.26;100.00;100706.41;5040398;28;20885;-51
2022/11/02 00:52:54;;;;;;;2.00;0.37;;;;;;;7.42;100.00;100708.03;5043164;28;20505;-49
2022/11/02 00:55:20;;;;;;;1.93;0.60;;;;;;;7.40;100.00;100707.19;5021353;28;20927;-51
2022/11/02 00:57:47;;;;;;;0.40;0.20;;;;;;;7.23;100.00;100706.44;5036138;28;20461;-50
2022/11/02 01:00:14;;;;;;;0.70;0.63;;;;;;;7.24;100.00;100705.53;5039622;28;20504;-52
2022/11/02 01:02:41;;;;;;;0.40;0.40;;;;;;;7.29;100.00;100700.22;5042884;28;20451;-50
2022/11/02 01:05:09;;;;;;;0.40;0.20;;;;;;;7.41;100.00;100708.06;5033243;28;20487;-53
2022/11/02 01:07:36;;;;;;;1.37;1.27;;;;;;;7.43;100.00;100712.44;5035729;28;20474;-51
2022/11/02 01:10:04;;;;;;;5.30;1.60;;;;;;;7.68;100.00;100712.22;5038511;28;20510;-52
2022/11/02 01:12:31;;;;;;;4.73;1.30;;;;;;;7.68;100.00;100713.09;5042973;28;20501;-51
2022/11/02 01:14:57;;;;;;;0.40;0.30;;;;;;;7.50;100.00;100717.66;5031875;28;20470;-51
2022/11/02 01:17:24;;;;;;;1.27;0.80;;;;;;;7.49;100.00;100719.44;5042716;28;20459;-53
2022/11/02 01:19:50;;;;;;;1.07;0.70;;;;;;;7.40;100.00;100730.97;5040895;28;20462;-52
2022/11/02 01:22:16;;;;;;;2.20;0.80;;;;;;;7.42;100.00;100715.97;5017964;28;20462;-52
2022/11/02 01:24:43;;;;;;;0.50;0.50;;;;;;;7.43;100.00;100717.72;5048588;28;20493;-50
2022/11/02 01:27:09;;;;;;;2.00;1.50;;;;;;;7.30;100.00;100725.78;5049110;28;20520;-52
2022/11/02 01:29:35;;;;;;;6.83;1.47;;;;;;;7.09;100.00;100719.75;5037177;28;20829;-49
2022/11/02 01:32:02;;;;;;;0.50;0.37;;;;;;;7.00;100.00;100709.28;5045971;28;20508;-52
2022/11/02 01:34:28;;;;;;;0.50;0.50;;;;;;;7.17;100.00;100706.50;5048662;28;20983;-50
2022/11/02 01:36:55;;;;;;;1.60;1.20;;;;;;;7.27;100.00;100704.66;5040085;28;20547;-52
2022/11/02 01:39:21;;;;;;;0.60;0.60;;;;;;;7.15;100.00;100702.13;5040891;28;20501;-50
2022/11/02 01:41:52;;;;;;;0.60;0.57;;;;;;;7.42;100.00;100702.75;5035784;28;20969;-50
2022/11/02 01:44:31;;;;;;;0.60;0.60;;;;;;;7.10;100.00;100695.06;5048425;28;20995;-52
2022/11/02 01:47:02;;;;;;;0.53;0.30;;;;;;;7.36;100.00;100696.63;5036710;28;20900;-50
2022/11/02 01:49:33;;;;;;;0.50;0.50;;;;;;;7.12;100.00;100689.78;5035248;28;20452;-51
2022/11/02 01:52:08;;;;;;;0.57;0.57;;;;;;;7.17;100.00;100692.41;5039824;28;20490;-52
2022/11/02 01:54:58;;;;;;;0.67;0.63;;;;;;;7.15;100.00;100689.78;5042572;28;20455;-51
2022/11/02 01:57:26;;;;;;;0.40;0.30;;;;;;;7.43;100.00;100693.94;5042047;28;20447;-51
2022/11/02 02:00:09;;;;;;;0.53;0.50;;;;;;;7.28;100.00;100691.41;5034378;28;20459;-50
2022/11/02 02:02:48;;;;;;;0.73;0.73;;;;;;;7.15;100.00;100688.91;5042158;28;20459;-50
2022/11/02 02:05:16;;;;;;;2.50;1.70;;;;;;;7.22;100.00;100685.28;5016505;28;20491;-50
2022/11/02 02:07:43;;;;;;;0.40;0.40;;;;;;;7.11;100.00;100690.66;5035286;28;20458;-51
2022/11/02 02:10:10;;;;;;;0.50;0.30;;;;;;;7.08;100.00;100683.63;5036759;28;20510;-50
2022/11/02 02:12:40;;;;;;;1.13;1.13;;;;;;;7.09;100.00;100688.03;5041637;28;20456;-51
2022/11/02 02:15:08;;;;;;;1.30;1.20;;;;;;;7.14;100.00;100680.09;5033305;28;20486;-51
2022/11/02 02:17:52;;;;;;;4.53;1.70;;;;;;;7.12;100.00;100680.06;5046325;28;20462;-51
2022/11/02 02:20:37;;;;;;;0.40;0.30;;;;;;;7.10;100.00;100668.63;5037412;28;20513;-52
2022/11/02 02:23:41;;;;;;;0.83;0.83;;;;;;;7.13;100.00;100663.34;5040515;28;20518;-52
2022/11/02 02:26:34;;;;;;;0.43;0.43;;;;;;;7.51;100.00;100667.38;5062534;28;20574;-50
2022/11/02 02:29:21;;;;;;;1.13;0.87;;;;;;;7.34;100.00;100671.97;5040290;28;20504;-51
2022/11/02 02:32:01;;;;;;;1.20;1.10;;;;;;;7.47;100.00;100670.97;5038878;28;20859;-50
2022/11/02 02:34:32;;;;;;;1.97;1.20;;;;;;;7.47;100.00;100667.44;5051732;28;20454;-50
2022/11/02 02:37:12;;;;;;;4.00;0.77;;;;;;;7.51;100.00;100669.16;5042146;28;20545;-52
2022/11/02 02:39:58;;;;;;;1.13;1.03;;;;;;;7.55;100.00;100676.19;5045594;28;20450;-52
2022/11/02 02:42:34;;;;;;;0.40;0.40;;;;;;;7.84;100.00;100674.09;5043146;28;20446;-50
2022/11/02 02:45:15;;;;;;;2.50;1.73;;;;;;;7.72;100.00;100674.25;5042885;28;20548;-50
2022/11/02 02:47:49;;;;;;;1.60;0.97;;;;;;;7.87;100.00;100673.19;5046784;28;20504;-51
2022/11/02 02:50:24;;;;;;;0.50;0.50;;;;;;;7.84;100.00;100681.16;5043995;28;20478;-50
2022/11/02 02:52:52;;;;;;;20.60;0.77;;;;;;;8.43;100.00;100687.53;5045547;28;20451;-51
2022/11/02 02:55:26;;;;;;;3.37;0.67;;;;;;;8.19;100.00;100683.38;5041641;28;20923;-51
2022/11/02 02:57:54;;;;;;;0.50;0.30;;;;;;;8.23;100.00;100679.81;5044924;28;20458;-51
2022/11/02 03:00:21;;;;;;;9.73;3.30;;;;;;;8.43;100.00;100687.53;5039694;28;20459;-51
2022/11/02 03:03:00;;;;;;;1.20;1.10;;;;;;;8.29;100.00;100679.72;5045090;28;20940;-51
2022/11/02 03:05:33;;;;;;;0.40;0.37;;;;;;;8.11;100.00;100675.56;5045361;28;20543;-52
2022/11/02 03:08:05;;;;;;;0.87;0.63;;;;;;;8.03;100.00;100672.09;5044751;28;20448;-52
2022/11/02 03:10:38;;;;;;;1.40;1.30;;;;;;;8.06;100.00;100669.41;5047174;28;20538;-51
2022/11/02 03:13:59;;;;;;;1.13;0.90;;;;;;;8.02;100.00;100673.00;5051276;28;20866;-52
2022/11/02 03:16:42;;;;;;;0.40;0.33;;;;;;;8.15;100.00;100661.38;4941788;29;20569;-51
2022/11/02 03:19:37;;;;;;;0.83;0.83;;;;;;;8.37;100.00;100674.38;5029427;28;20454;-51
2022/11/02 03:22:26;;;;;;;1.20;1.13;;;;;;;8.24;100.00;100668.34;5038207;28;20447;-52
2022/11/02 03:25:27;;;;;;;1.07;1.03;;;;;;;8.35;100.00;100673.50;5038103;28;20490;-51
2022/11/02 03:28:04;;;;;;;0.53;0.43;;;;;;;8.37;100.00;100688.50;4965986;28;20508;-50
2022/11/02 03:30:38;;;;;;;1.27;1.17;;;;;;;8.49;100.00;100684.78;5037272;28;20509;-50
2022/11/02 03:33:16;;;;;;;0.87;0.80;;;;;;;8.53;100.00;100676.78;5049337;28;20513;-51
2022/11/02 03:36:05;;;;;;;6.93;1.00;;;;;;;8.56;100.00;100678.50;5039914;28;20967;-52
2022/11/02 03:38:53;;;;;;;2.90;1.07;;;;;;;8.86;100.00;100688.66;5036956;28;20459;-51
2022/11/02 03:41:23;;;;;;;3.60;1.50;;;;;;;8.72;100.00;100695.94;5044408;28;20458;-52
2022/11/02 03:43:54;;;;;;;1.03;0.40;;;;;;;8.79;100.00;100692.31;5043350;28;20956;-51
2022/11/02 03:46:21;;;;;;;0.97;0.67;;;;;;;8.70;100.00;100692.44;5035267;28;20491;-53
2022/11/02 03:48:50;;;;;;;0.80;0.80;;;;;;;8.76;100.00;100692.34;5041874;28;20463;-51
2022/11/02 03:51:19;;;;;;;1.60;0.97;;;;;;;8.61;100.00;100700.50;5044294;28;20804;-51
2022/11/02 03:54:06;;;;;;;2.97;2.20;;;;;;;8.72;100.00;100698.59;5040910;28;20458;-52
2022/11/02 03:56:47;;;;;;;2.03;0.90;;;;;;;8.72;100.00;100709.19;5037223;28;21029;-52
2022/11/02 03:59:13;;;;;;;0.70;0.70;;;;;;;8.81;100.00;100714.38;5048137;28;21002;-50
2022/11/02 04:01:48;;;;;;;2.10;1.20;;;;;;;8.82;100.00;100712.59;5021563;28;20529;-53
2022/11/02 04:04:14;;;;;;;0.70;0.70;;;;;;;8.95;100.00;100715.94;5047824;28;20457;-50
2022/11/02 04:06:44;;;;;;;2.67;0.80;;;;;;;8.95;100.00;100716.81;5034253;28;20508;-51
2022/11/02 04:09:11;;;;;;;0.83;0.83;;;;;;;8.78;100.00;100718.84;5043704;28;21018;-52
2022/11/02 04:14:37;;;;;;;7.23;1.77;;;;;;;8.71;100.00;100731.28;5037392;28;20450;-54
2022/11/02 04:19:50;;;;;;;1.83;1.33;;;;;;;8.90;100.00;100723.94;5038308;28;20546;-52
2022/11/02 04:25:17;;;;;;;1.23;1.13;;;;;;;8.89;100.00;100717.75;5039797;28;20490;-51
2022/11/02 04:27:47;;;;;;;2.93;0.87;;;;;;;8.81;100.00;100721.44;5059801;28;20478;-50
2022/11/02 04:30:15;;;;;;;3.37;2.20;;;;;;;8.85;100.00;100728.44;5036601;28;20451;-52
2022/11/02 04:35:30;;;;;;;0.93;0.93;;;;;;;8.71;100.00;100727.78;5037093;28;20466;-50
2022/11/02 04:40:43;;;;;;;44.70;2.80;;;;;;;8.48;100.00;100731.59;5040511;28;20451;-50
2022/11/02 04:43:09;;;;;;;1.00;0.90;;;;;;;8.40;100.00;100738.78;5035620;28;20504;-51
2022/11/02 04:45:36;;;;;;;1.13;0.90;;;;;;;8.26;100.00;100741.56;5039416;28;20503;-51
2022/11/02 04:48:05;;;;;;;0.60;0.60;;;;;;;8.22;100.00;100746.88;5045685;28;20455;-51
2022/11/02 04:50:33;;;;;;;1.70;0.87;;;;;;;8.23;100.00;100748.66;5038786;28;20984;-52
2022/11/02 04:53:01;;;;;;;0.53;0.53;;;;;;;8.43;100.00;100751.97;5039275;28;21006;-53
2022/11/02 04:55:28;;;;;;;1.03;0.90;;;;;;;8.74;100.00;100754.22;5048079;28;20467;-51
2022/11/02 04:57:55;;;;;;;3.07;1.37;;;;;;;8.61;100.00;100746.44;5036206;28;20451;-51
2022/11/02 05:00:22;;;;;;;5.93;1.50;;;;;;;8.43;100.00;100740.50;5045250;28;20512;-52
2022/11/02 05:02:49;;;;;;;1.40;1.30;;;;;;;8.48;100.00;100752.78;5036249;28;21013;-52
2022/11/02 05:05:16;;;;;;;2.73;1.33;;;;;;;8.53;100.00;100750.97;5044106;28;20572;-51
2022/11/02 05:07:43;;;;;;;6.70;1.47;;;;;;;8.50;100.00;100747.50;5043802;28;20509;-50
2022/11/02 05:10:10;;;;;;;0.80;0.70;;;;;;;8.51;100.00;100754.53;5042333;28;20455;-50
2022/11/02 05:12:36;;;;;;;0.63;0.63;;;;;;;8.44;100.00;100752.84;5035288;28;21019;-50
2022/11/02 05:15:03;;;;;;;2.50;1.10;;;;;;;8.38;100.00;100760.88;5044188;28;20450;-50
2022/11/02 05:17:30;;;;;;;1.70;1.60;;;;;;;8.20;100.00;100760.16;5032370;28;20467;-52
2022/11/02 05:19:56;;;;;;;0.50;0.50;;;;;;;8.17;100.00;100761.97;5040850;28;20458;-51
2022/11/02 05:22:23;;;;;;;0.90;0.90;;;;;;;8.30;100.00;100769.75;5016021;28;20443;-52
2022/11/02 05:24:49;;;;;;;1.40;1.03;;;;;;;8.33;100.00;100774.13;5048253;28;20451;-52
2022/11/02 05:27:15;;;;;;;2.20;1.27;;;;;;;8.73;100.00;100779.84;5043192;28;20817;-50
2022/11/02 05:29:42;;;;;;;10.57;2.47;;;;;;;8.72;100.00;100782.53;5029614;28;20456;-52
2022/11/02 05:32:08;;;;;;;4.13;1.30;;;;;;;8.44;100.00;100782.88;5046942;28;20467;-50
2022/11/02 05:34:35;;;;;;;2.20;2.00;;;;;;;8.39;100.00;100779.41;5048538;28;20466;-52
2022/11/02 05:37:01;;;;;;;4.00;1.37;;;;;;;8.60;100.00;100789.72;5039658;28;20468;-50
2022/11/02 05:39:27;;;;;;;0.70;0.47;;;;;;;8.54;100.00;100784.53;5042081;28;20457;-51
2022/11/02 05:41:54;;;;;;;1.33;1.27;;;;;;;8.53;100.00;100787.19;5035733;28;20508;-50
2022/11/02 05:44:20;;;;;;;0.50;0.40;;;;;;;8.61;100.00;100793.25;5046169;28;20796;-51
2022/11/02 05:46:46;;;;;;;7.00;1.87;;;;;;;8.54;100.00;100797.75;5035298;28;20498;-53
2022/11/02 05:49:13;;;;;;;2.53;1.03;;;;;;;8.67;100.00;100800.28;5035697;28;20952;-50
2022/11/02 05:51:39;;;;;;;2.37;1.33;;;;;;;8.71;100.00;100804.63;5044411;28;20467;-53
2022/11/02 05:54:06;;;;;;;6.20;1.63;;;;;;;8.69;100.00;100807.28;5036368;28;20895;-51
2022/11/02 05:56:32;;;;;;;1.47;1.37;;;;;;;8.58;100.00;100815.38;5042345;28;20471;-50
2022/11/02 05:58:58;;;;;;;2.50;1.20;;;;;;;8.77;100.00;100813.38;5041606;28;20447;-51
2022/11/02 06:01:25;;;;;;;1.80;1.70;;;;;;;8.77;100.00;100812.47;5030839;28;20510;-53
2022/11/02 06:03:51;;;;;;;3.07;2.23;;;;;;;8.79;100.00;100803.66;5041344;28;20968;-51
2022/11/02 06:06:20;;;;;;;9.33;2.30;;;;;;;8.90;100.00;100814.06;5032459;28;20499;-52
2022/11/02 06:08:46;;;;;;;0.90;0.73;;;;;;;8.89;100.00;100807.91;5042085;28;20454;-53
2022/11/02 06:11:13;;;;;;;0.53;0.50;;;;;;;9.00;100.00;100818.38;5034292;28;20463;-51
2022/11/02 06:13:41;;;;;;;3.73;1.27;;;;;;;8.90;100.00;100808.78;5041888;28;20462;-50
2022/11/02 06:16:09;;;;;;;14.93;2.70;;;;;;;8.82;100.00;100819.50;5035482;28;20489;-51
2022/11/02 06:18:37;;;;;;;0.77;0.77;;;;;;;8.91;100.00;100818.50;5035126;28;20452;-51
2022/11/02 06:21:04;;;;;;;3.40;1.33;;;;;;;8.90;100.00;100814.06;5041025;28;21010;-51
2022/11/02 06:23:30;;;;;;;0.70;0.60;;;;;;;8.99;100.00;100821.03;5041461;28;20471;-51
2022/11/02 06:25:58;;;;;;;1.80;1.70;;;;;;;9.00;100.00;100828.97;5045849;28;20497;-51
2022/11/02 06:28:25;;;;;;;2.10;1.57;;;;;;;9.01;100.00;100832.50;5050858;28;20454;-53
2022/11/02 06:30:52;;;;;;;3.63;1.03;;;;;;;8.94;100.00;100828.19;5037564;28;20455;-52
2022/11/02 06:33:19;;;;;;;1.93;1.27;;;;;;;8.87;100.00;100833.56;5046476;28;20513;-52
2022/11/02 06:35:47;;;;;;;12.13;2.50;;;;;;;8.83;100.00;100837.16;5044897;28;20470;-56
2022/11/02 06:38:14;;;;;;;2.90;0.90;;;;;;;8.83;100.00;100847.75;5045357;28;20513;-52
2022/11/02 06:40:40;;;;;;;2.60;1.97;;;;;;;8.83;100.00;100849.53;5038073;28;20451;-52
2022/11/02 06:43:07;;;;;;;5.77;1.60;;;;;;;8.75;100.00;100852.25;5034209;28;20463;-53
2022/11/02 06:45:42;;;;;;;1.50;1.40;;;;;;;8.90;100.00;100857.38;5039289;28;20494;-53
2022/11/02 06:48:09;;;;;;;2.00;1.20;;;;;;;8.86;100.00;100860.97;5035075;28;20450;-53
2022/11/02 06:50:35;;;;;;;5.40;1.77;;;;;;;8.98;100.00;100859.94;5019840;28;20459;-51
2022/11/02 06:53:02;;;;;;;8.83;2.90;;;;;;;8.90;100.00;100857.38;5029553;28;20455;-52
2022/11/02 06:55:29;;;;;;;7.43;2.97;;;;;;;8.93;100.00;100866.22;5028617;28;20483;-52
2022/11/02 06:57:55;;;;;;;1.33;1.23;;;;;;;8.97;100.00;100870.56;5041668;28;20459;-52
2022/11/02 07:00:22;;;;;;;3.63;2.00;;;;;;;9.00;100.00;100866.09;5039152;28;20447;-52
2022/11/02 07:02:59;;;;;;;1.70;1.27;;;;;;;9.08;100.00;100872.19;5034512;28;20461;-52
2022/11/02 07:05:26;;;;;;;1.33;1.13;;;;;;;9.18;100.00;100879.13;5038119;28;20823;-51
2022/11/02 07:07:53;;;;;;;1.00;0.87;;;;;;;9.33;100.00;100882.47;5038431;28;20508;-55
2022/11/02 07:10:19;;;;;;;3.10;1.30;;;;;;;9.49;100.00;100890.19;5044495;28;20964;-52
2022/11/02 07:12:46;;;;;;;1.63;0.70;;;;;;;9.64;100.00;100894.38;5041123;28;20513;-51
2022/11/02 07:15:12;;;;;;;41.07;4.73;;;;;;;9.82;100.00;100895.88;5038176;28;20861;-52
2022/11/02 07:17:40;;;;;;;0.77;0.77;;;;;;;9.90;100.00;100906.38;5038530;28;20458;-51
2022/11/02 07:20:09;;;;;;;1.43;1.20;;;;;;;9.98;100.00;100904.47;5038204;28;20873;-54
2022/11/02 07:22:36;;;;;;;7.50;2.13;;;;;;;10.33;100.00;100910.09;5038869;28;20858;-51
2022/11/02 07:25:03;;;;;;;24.17;4.30;;;;;;;10.41;100.00;100914.41;5045465;28;20508;-51
2022/11/02 07:27:29;;;;;;;13.63;2.47;;;;;;;10.56;100.00;100919.47;5043298;28;20518;-51
2022/11/02 07:29:57;;;;;;;6.40;1.53;;;;;;;10.71;100.00;100916.50;5044849;28;20935;-51
2022/11/02 07:32:24;;;;;;;3.27;1.00;;;;;;;10.87;100.00;100909.97;5040265;28;20466;-50
2022/11/02 07:34:51;;;;;;;2.10;1.77;;;;;;;10.97;100.00;100924.00;5049085;28;20462;-49
2022/11/02 07:37:17;;;;;;;4.50;1.20;;;;;;;11.13;100.00;100921.88;5040960;28;20897;-52
2022/11/02 07:39:43;;;;;;;4.30;2.00;;;;;;;11.19;100.00;100925.28;5044201;28;20813;-50
2022/11/02 07:42:10;;;;;;;3.47;1.57;;;;;;;11.37;100.00;100936.44;5039940;28;20485;-51
2022/11/02 07:44:36;;;;;;;5.30;0.70;;;;;;;11.45;100.00;100931.84;5037305;28;20459;-51
2022/11/02 07:47:03;;;;;;;5.67;1.30;;;;;;;11.48;100.00;100931.75;5042506;28;20569;-52
2022/11/02 07:49:29;;;;;;;1.03;0.90;;;;;;;11.56;100.00;100936.03;5035403;28;20456;-51
2022/11/02 07:51:55;;;;;;;0.50;0.50;;;;;;;11.84;100.00;100946.97;5042146;28;20460;-51
2022/11/02 07:54:22;;;;;;;3.97;1.13;;;;;;;11.94;100.00;100947.63;5043818;28;20462;-51
2022/11/02 07:56:48;;;;;;;0.57;0.57;;;;;;;11.96;100.00;100947.59;5039648;28;20566;-53
2022/11/02 07:59:14;;;;;;;5.93;0.93;;;;;;;12.07;100.00;100951.75;5048436;28;20478;-53
2022/11/02 08:01:41;;;;;;;1.73;1.00;;;;;;;12.19;100.00;100947.00;5040017;28;20463;-52
2022/11/02 08:04:07;;;;;;;1.37;0.73;;;;;;;12.31;100.00;100954.72;5047956;28;20470;-50
2022/11/02 08:06:34;;;;;;;0.60;0.60;;;;;;;12.42;100.00;100952.66;5050421;28;20538;-50
2022/11/02 08:09:02;;;;;;;4.00;0.60;;;;;;;12.71;100.00;100952.75;5036944;28;20450;-50
2022/11/02 08:11:28;;;;;;;1.27;0.50;;;;;;;12.69;100.00;100957.28;5040621;28;20460;-51
2022/11/02 08:13:54;;;;;;;9.90;0.90;;;;;;;12.93;100.00;100968.22;5043739;28;20926;-52
2022/11/02 08:16:21;;;;;;;2.57;1.17;;;;;;;12.92;100.00;100966.47;5040471;28;20475;-51
2022/11/02 08:18:48;;;;;;;16.60;1.10;;;;;;;12.96;100.00;100969.00;5036988;28;20509;-50
2022/11/02 08:21:14;;;;;;;1.47;0.50;;;;;;;13.13;100.00;100957.84;5040480;28;20458;-52
2022/11/02 08:23:40;;;;;;;16.27;0.77;;;;;;;13.04;100.00;100950.13;5043810;28;20463;-51
2022/11/02 08:26:07;;;;;;;8.73;1.63;;;;;;;13.37;100.00;100966.09;5040296;28;20544;-50
2022/11/02 08:28:38;;;;;;;2.53;0.57;;;;;;;13.43;100.00;100972.16;5036820;28;20429;-52
2022/11/02 08:31:06;;;;;;;1.47;0.80;;;;;;;13.41;100.00;100967.75;5039319;28;20459;-54
2022/11/02 08:33:32;;;;;;;1.13;0.97;;;;;;;13.52;100.00;100969.19;5043542;28;20542;-50
2022/11/02 08:36:03;;;;;;;5.20;1.13;;;;;;;13.40;100.00;100963.34;5041032;28;20482;-50
2022/11/02 08:38:31;;;;;;;0.57;0.57;;;;;;;13.57;100.00;100964.59;5036783;28;20467;-51
2022/11/02 08:40:57;;;;;;;2.50;1.07;;;;;;;13.41;100.00;100963.28;5042078;28;20501;-50
2022/11/02 08:43:24;;;;;;;2.00;0.50;;;;;;;13.69;100.00;100968.69;5036036;28;20459;-51
2022/11/02 08:45:50;;;;;;;1.90;0.87;;;;;;;13.67;100.00;100972.31;5037508;28;21007;-51
2022/11/02 08:48:36;;;;;;;0.50;0.30;;;;;;;13.67;99.48;100965.19;5037935;28;21027;-50
2022/11/02 08:51:04;;;;;;;4.43;1.33;;;;;;;13.92;98.80;100963.50;5036139;28;20459;-51
2022/11/02 08:53:31;;;;;;;2.13;0.90;;;;;;;13.98;98.38;100974.91;5042575;28;21138;-50
2022/11/02 08:55:57;;;;;;;4.13;1.00;;;;;;;14.13;97.50;100967.31;5036265;28;20541;-50
2022/11/02 08:58:24;;;;;;;7.53;0.80;;;;;;;14.11;96.27;100976.28;5046317;28;20455;-51
2022/11/02 09:00:54;;;;;;;22.87;2.17;;;;;;;14.34;95.99;100968.38;5035993;28;20451;-51
2022/11/02 09:03:23;;;;;;;8.63;0.90;;;;;;;14.32;95.40;100983.63;5040351;28;20467;-50
2022/11/02 09:05:57;;;;;;;2.87;2.40;;;;;;;14.54;93.94;100977.59;5043028;28;20474;-52
2022/11/02 09:08:25;;;;;;;1.10;0.77;;;;;;;14.42;94.10;100968.16;5049262;28;20458;-52
2022/11/02 09:10:52;;;;;;;5.90;0.90;;;;;;;14.50;94.09;100976.81;5029499;28;20810;-52
2022/11/02 09:13:23;;;;;;;2.93;0.80;;;;;;;14.66;93.67;100974.47;5038348;28;20451;-51
2022/11/02 09:15:53;;;;;;;2.20;0.80;;;;;;;14.68;92.85;100973.53;5043104;28;20511;-54
2022/11/02 09:18:20;;;;;;;15.20;1.90;;;;;;;14.94;92.91;100977.06;5041319;28;20869;-54
2022/11/02 09:20:47;;;;;;;10.20;0.50;;;;;;;15.01;92.38;100975.94;5035853;28;20962;-54
2022/11/02 09:23:17;;;;;;;1.50;0.67;;;;;;;15.12;92.83;100971.06;5047330;28;20469;-54
2022/11/02 09:25:44;;;;;;;3.20;0.67;;;;;;;15.18;92.01;100969.97;5043285;28;20482;-54
2022/11/02 09:28:11;;;;;;;0.70;0.57;;;;;;;15.27;91.44;100957.09;5047960;28;20552;-54
2022/11/02 09:30:38;;;;;;;11.33;2.60;;;;;;;15.35;90.24;100959.47;5036650;28;20535;-54
2022/11/02 09:33:05;;;;;;;0.60;0.40;;;;;;;15.34;89.59;100965.78;5046992;28;20956;-54
2022/11/02 09:35:35;;;;;;;6.03;2.03;;;;;;;15.33;90.42;100972.94;5041843;28;20476;-54
2022/11/02 09:38:02;;;;;;;0.60;0.50;;;;;;;15.35;89.66;100972.88;5043102;28;20964;-54
2022/11/02 09:40:42;;;;;;;6.37;0.67;;;;;;;15.39;89.05;100978.09;5037377;28;20455;-54
2022/11/02 09:43:13;;;;;;;13.67;2.90;;;;;;;15.27;88.83;100980.34;5035385;28;20451;-53
2022/11/02 09:46:03;;;;;;;1.83;0.97;;;;;;;15.55;88.78;100978.38;5038449;28;20542;-53
2022/11/02 09:48:47;;;;;;;2.20;0.83;;;;;;;15.61;88.11;100977.28;5036187;28;20450;-53
2022/11/02 09:51:17;;;;;;;1.63;0.97;;;;;;;15.70;88.42;100976.94;5029213;28;20452;-53
2022/11/02 09:54:09;;;;;;;10.53;1.93;;;;;;;15.63;86.81;100986.19;5037748;28;20463;-53
2022/11/02 09:56:43;;;;;;;10.23;1.10;;;;;;;15.76;85.41;100981.19;5036727;28;20467;-53
2022/11/02 09:59:24;;;;;;;5.77;1.43;;;;;;;15.86;85.07;100979.91;5035524;28;20483;-53
2022/11/02 10:02:00;;;;;;;5.30;1.27;;;;;;;16.13;84.43;100985.97;5039003;28;20455;-54
2022/11/02 10:04:53;;;;;;;5.50;2.30;;;;;;;16.22;83.20;100989.16;5042098;28;20836;-54
2022/11/02 10:07:32;;;;;;;3.43;1.67;;;;;;;16.11;82.75;100993.22;5042684;28;20628;-54
2022/11/02 10:10:36;;;;;;;9.00;1.23;;;;;;;16.00;82.03;100997.19;5038573;28;20476;-54
2022/11/02 10:13:11;;;;;;;6.97;0.60;;;;;;;15.95;81.37;101001.88;5037798;28;20458;-54
2022/11/02 10:15:46;;;;;;;17.93;1.77;;;;;;;15.74;82.00;100994.66;5035028;28;20990;-54
2022/11/02 10:18:25;;;;;;;4.53;0.40;;;;;;;15.83;80.82;101004.16;5036605;28;20447;-54
2022/11/02 10:20:54;;;;;;;3.33;2.07;;;;;;;15.84;81.74;101011.25;5035480;28;20459;-54
2022/11/02 10:23:44;;;;;;;5.90;1.03;;;;;;;15.63;81.01;100996.91;5042215;28;20458;-54
2022/11/02 10:26:20;;;;;;;2.43;1.57;;;;;;;15.87;79.38;101005.78;5048365;28;20958;-54
2022/11/02 10:28:55;;;;;;;16.10;2.40;;;;;;;15.97;78.78;101013.41;5043028;28;20535;-54
2022/11/02 10:31:29;;;;;;;2.43;1.27;;;;;;;15.87;76.87;101006.66;5041986;28;20432;-54
2022/11/02 10:34:04;;;;;;;0.63;0.50;;;;;;;15.73;78.68;101005.44;5047421;28;20440;-54
2022/11/02 10:36:50;;;;;;;1.77;0.97;;;;;;;15.77;77.67;101012.44;5034994;28;20787;-53
2022/11/02 10:39:42;;;;;;;3.57;1.10;;;;;;;15.75;76.13;101003.56;5037355;28;20505;-52
2022/11/02 10:42:33;;;;;;;0.60;0.60;;;;;;;15.91;76.17;100999.38;5040469;28;20481;-52
2022/11/02 10:45:46;;;;;;;0.60;0.60;;;;;;;16.03;74.08;101006.03;5038876;28;20446;-52
2022/11/02 10:48:45;;;;;;;0.60;0.60;;;;;;;15.85;73.91;101007.66;5015335;28;20483;-53
2022/11/02 10:51:14;;;;;;;6.80;0.80;;;;;;;15.97;73.24;101009.84;5004074;28;20484;-53
2022/11/02 10:53:45;;;;;;;1.57;0.80;;;;;;;16.00;73.09;100999.00;5024619;28;20509;-52
2022/11/02 10:56:29;;;;;;;0.60;0.43;;;;;;;15.82;73.65;101011.31;5045455;28;20563;-52
2022/11/02 10:59:01;;;;;;;1.03;1.03;;;;;;;16.10;72.40;100992.34;5044907;28;20457;-52
2022/11/02 11:01:29;;;;;;;1.53;0.60;;;;;;;16.16;73.43;101004.63;5037297;28;20475;-53
2022/11/02 11:04:04;;;;;;;0.87;0.60;;;;;;;16.33;71.38;101002.16;5035267;28;20476;-53
2022/11/02 11:06:39;;;;;;;0.40;0.30;;;;;;;16.19;72.46;100989.31;5043128;28;20520;-53
2022/11/02 11:09:15;;;;;;;0.50;0.43;;;;;;;16.36;72.87;100988.59;5045411;28;20425;-53
2022/11/02 11:11:56;;;;;;;1.27;0.93;;;;;;;16.27;72.01;100988.97;5039416;28;20437;-53
2022/11/02 11:14:28;;;;;;;21.47;1.40;;;;;;;16.37;71.35;100986.78;5036960;28;20458;-53
2022/11/02 11:17:20;;;;;;;4.43;1.00;;;;;;;16.48;71.84;100977.38;5038089;28;20449;-52
2022/11/02 11:20:29;;;;;;;5.83;1.10;;;;;;;16.47;71.25;100986.34;5051329;28;20478;-55
2022/11/02 11:23:19;;;;;;;4.10;1.63;;;;;;;16.38;71.71;100993.91;5041707;28;20592;-52
2022/11/02 11:26:10;;;;;;;15.37;2.30;;;;;;;16.20;72.12;100979.44;5045532;28;20469;-52
2022/11/02 11:28:50;;;;;;;6.23;1.23;;;;;;;16.33;72.73;100987.88;5051082;28;20855;-52
2022/11/02 11:31:17;;;;;;;4.00;1.73;;;;;;;16.39;72.39;100983.09;5048381;28;20964;-53
2022/11/02 11:33:58;;;;;;;0.60;0.50;;;;;;;16.48;71.59;100987.22;5045031;28;20464;-52
2022/11/02 11:36:34;;;;;;;0.70;0.67;;;;;;;16.55;71.59;100983.34;5044346;28;20925;-52
2022/11/02 11:39:18;;;;;;;1.60;0.80;;;;;;;16.71;71.70;100980.91;5039511;28;20498;-53
2022/11/02 11:41:44;;;;;;;2.27;1.47;;;;;;;16.51;72.89;100976.34;5047167;28;20934;-52
2022/11/02 11:44:14;;;;;;;6.10;2.30;;;;;;;16.77;71.22;100968.09;5047746;28;20931;-53
2022/11/02 11:46:51;;;;;;;16.37;0.50;;;;;;;16.59;70.00;100969.75;5039576;28;20475;-52
2022/11/02 11:49:28;;;;;;;1.17;0.50;;;;;;;16.71;69.82;100962.97;5046111;28;20454;-53
2022/11/02 11:52:19;;;;;;;3.27;1.10;;;;;;;16.68;70.37;100973.84;5040900;28;20569;-53
2022/11/02 11:54:57;;;;;;;19.13;1.03;;;;;;;16.81;67.37;100963.47;5049919;28;20476;-53
2022/11/02 11:57:32;;;;;;;16.33;1.33;;;;;;;16.83;67.02;100967.81;5050780;28;20492;-52
2022/11/02 12:00:03;;;;;;;1.23;0.93;;;;;;;16.76;68.07;100963.69;5044742;28;20959;-53